Time;durP1;ratioP1;P1;durP2;ratioP2;P2;SDS_P1;SDS_P2;PMS_P1;PMS_P2;Temp;Humidity;BMP_temperature;BMP_pressure;BME280_temperature;BME280_humidity;BME280_pressure;Samples;Min_cycle;Max_cycle;Signal;HPM_P1;HPM_P2
2022/12/05 00:01:56;;;;;;;36.38;14.80;;;;;;;1.45;100.00;99484.02;2249066;79;21059;-59
2022/12/05 00:04:57;;;;;;;37.30;15.43;;;;;;;1.50;100.00;99485.67;2249201;79;21064;-59
2022/12/05 00:07:59;;;;;;;37.53;15.13;;;;;;;1.60;100.00;99486.41;2249040;79;21019;-59
2022/12/05 00:11:00;;;;;;;37.35;14.95;;;;;;;1.55;100.00;99483.02;2249300;79;21504;-59
2022/12/05 00:14:02;;;;;;;36.75;14.55;;;;;;;1.56;100.00;99476.98;2249083;79;21060;-59
2022/12/05 00:17:03;;;;;;;36.10;14.83;;;;;;;1.58;100.00;99479.53;2249082;79;21583;-59
2022/12/05 00:20:04;;;;;;;32.42;13.58;;;;;;;1.58;100.00;99477.83;2249134;79;21056;-58
2022/12/05 00:23:06;;;;;;;36.35;14.55;;;;;;;1.64;100.00;99474.27;2249037;79;21029;-59
2022/12/05 00:26:07;;;;;;;36.75;14.70;;;;;;;1.62;100.00;99480.76;2249142;79;21084;-58
2022/12/05 00:29:09;;;;;;;36.40;14.20;;;;;;;1.55;100.00;99483.89;2252878;79;21028;-58
2022/12/05 00:32:10;;;;;;;36.53;14.83;;;;;;;1.52;100.00;99483.06;2256372;79;21182;-58
2022/12/05 00:35:12;;;;;;;35.10;14.18;;;;;;;1.60;100.00;99488.15;2256109;79;21064;-59
2022/12/05 00:38:13;;;;;;;37.93;15.18;;;;;;;1.62;100.00;99487.23;2255921;79;21570;-59
2022/12/05 00:41:15;;;;;;;36.98;14.35;;;;;;;1.59;100.00;99485.98;2256077;79;21052;-58
2022/12/05 00:44:16;;;;;;;39.10;15.68;;;;;;;1.56;100.00;99486.03;2256486;79;21066;-58
2022/12/05 00:47:17;;;;;;;37.40;15.60;;;;;;;1.53;100.00;99480.90;2256228;79;21024;-58
2022/12/05 00:50:19;;;;;;;36.45;15.28;;;;;;;1.48;100.00;99480.97;2256139;79;21027;-58
2022/12/05 00:53:20;;;;;;;36.15;13.85;;;;;;;1.53;100.00;99488.66;2256293;79;21017;-59
2022/12/05 00:56:22;;;;;;;35.88;14.53;;;;;;;1.51;100.00;99482.22;2256114;79;20932;-58
2022/12/05 00:59:23;;;;;;;36.58;14.40;;;;;;;1.55;100.00;99471.38;2256053;79;21522;-58
2022/12/05 01:02:24;;;;;;;36.10;14.90;;;;;;;1.54;100.00;99464.07;2256117;79;21015;-58
2022/12/05 01:05:26;;;;;;;36.60;14.00;;;;;;;1.53;100.00;99461.51;2256290;79;21514;-58
2022/12/05 01:08:28;;;;;;;35.30;14.43;;;;;;;1.56;100.00;99461.02;2256054;79;20925;-58
2022/12/05 01:11:29;;;;;;;37.98;15.40;;;;;;;1.54;100.00;99452.88;2256104;79;21032;-58
2022/12/05 01:14:30;;;;;;;37.53;14.28;;;;;;;1.51;100.00;99459.39;2256221;79;21306;-58
2022/12/05 01:17:34;;;;;;;38.00;14.50;;;;;;;1.51;100.00;99459.39;2256083;79;21060;-59
2022/12/05 01:20:35;;;;;;;34.95;13.95;;;;;;;1.43;100.00;99461.23;2229282;79;21075;-58
2022/12/05 01:23:37;;;;;;;35.52;14.20;;;;;;;1.48;100.00;99459.41;2256347;79;21040;-58
2022/12/05 01:26:38;;;;;;;34.83;13.87;;;;;;;1.37;100.00;99446.65;2256502;79;21044;-58
2022/12/05 01:29:40;;;;;;;37.48;14.28;;;;;;;1.36;100.00;99453.53;2251590;79;21088;-58
2022/12/05 01:32:41;;;;;;;36.42;14.23;;;;;;;1.45;100.00;99456.45;2249178;79;21048;-58
2022/12/05 01:35:43;;;;;;;36.17;14.65;;;;;;;1.45;100.00;99449.12;2249394;79;21484;-58
2022/12/05 01:38:45;;;;;;;36.07;14.47;;;;;;;1.44;100.00;99447.40;2249265;79;21024;-58
2022/12/05 01:41:47;;;;;;;;;;;;;;;1.46;100.00;99443.08;2251976;79;21029;-58
2022/12/05 01:44:49;;;;;;;40.33;15.18;;;;;;;1.47;100.00;99435.30;2249013;79;20149;-58
2022/12/05 01:50:53;;;;;;;34.18;13.53;;;;;;;1.47;100.00;99436.59;2220257;79;20976;-59
2022/12/05 01:53:55;;;;;;;36.42;14.53;;;;;;;1.46;100.00;99433.58;2249331;79;20984;-59
2022/12/05 01:56:56;;;;;;;35.40;14.43;;;;;;;1.47;100.00;99434.45;2249450;79;21052;-58
2022/12/05 01:59:58;;;;;;;37.28;15.00;;;;;;;1.43;100.00;99431.49;2249219;79;21052;-58
2022/12/05 02:02:59;;;;;;;38.13;14.20;;;;;;;1.34;100.00;99435.91;2249337;79;21053;-58
2022/12/05 02:06:01;;;;;;;35.13;13.68;;;;;;;1.43;100.00;99435.38;2249159;79;21315;-59
2022/12/05 02:09:02;;;;;;;35.85;14.93;;;;;;;1.51;100.00;99432.25;2249302;79;21548;-59
2022/12/05 02:12:04;;;;;;;35.25;14.03;;;;;;;1.54;100.00;99437.37;2248981;79;21009;-59
2022/12/05 02:15:05;;;;;;;34.00;13.83;;;;;;;1.68;100.00;99437.14;2249065;79;21115;-58
2022/12/05 02:18:07;;;;;;;36.13;14.43;;;;;;;1.57;100.00;99437.32;2249553;79;21036;-58
2022/12/05 02:21:08;;;;;;;33.92;14.03;;;;;;;1.57;100.00;99434.73;2249139;79;21056;-59
2022/12/05 02:24:09;;;;;;;39.00;15.50;;;;;;;1.50;100.00;99430.53;2249268;79;21025;-59
2022/12/05 02:27:11;;;;;;;36.42;14.50;;;;;;;1.45;100.00;99423.27;2249117;79;21032;-58
2022/12/05 02:30:12;;;;;;;34.55;14.15;;;;;;;1.55;100.00;99424.83;2254242;79;21068;-59
2022/12/05 02:33:14;;;;;;;38.13;14.47;;;;;;;1.53;100.00;99418.84;2256259;79;21048;-58
2022/12/05 02:36:15;;;;;;;36.65;14.55;;;;;;;1.49;100.00;99412.84;2256491;79;21562;-58
2022/12/05 02:39:17;;;;;;;37.15;14.47;;;;;;;1.46;100.00;99409.47;2255979;79;21039;-59
2022/12/05 02:42:18;;;;;;;32.17;13.25;;;;;;;1.42;100.00;99405.22;2256149;79;21495;-59
2022/12/05 02:45:20;;;;;;;36.53;13.73;;;;;;;1.44;100.00;99403.45;2256403;79;21060;-59
2022/12/05 02:48:21;;;;;;;37.17;14.03;;;;;;;1.44;100.00;99403.45;2256176;79;21217;-58
2022/12/05 02:51:24;;;;;;;35.88;13.78;;;;;;;1.37;100.00;99406.58;2256166;79;21076;-58
2022/12/05 02:54:25;;;;;;;34.58;14.00;;;;;;;1.44;100.00;99402.16;2256376;79;21079;-58
2022/12/05 02:57:26;;;;;;;35.05;14.03;;;;;;;1.44;100.00;99399.16;2256297;79;21031;-58
2022/12/05 03:00:28;;;;;;;32.85;13.50;;;;;;;1.33;100.00;99401.03;2256138;79;21048;-58
2022/12/05 03:03:29;;;;;;;36.00;14.18;;;;;;;1.34;100.00;99402.30;2256280;79;21053;-58
2022/12/05 03:06:31;;;;;;;34.58;13.93;;;;;;;1.41;100.00;99397.03;2256188;79;21024;-58
2022/12/05 03:09:32;;;;;;;35.65;14.83;;;;;;;1.47;100.00;99402.14;2256174;79;21594;-58
2022/12/05 03:12:33;;;;;;;36.55;13.80;;;;;;;1.47;100.00;99400.40;2256187;79;21017;-58
2022/12/05 03:15:35;;;;;;;36.68;13.53;;;;;;;1.39;100.00;99391.89;2256179;79;21531;-59
2022/12/05 03:18:36;;;;;;;34.98;14.13;;;;;;;1.35;100.00;99392.39;2256280;79;21052;-59
2022/12/05 03:21:38;;;;;;;35.38;13.55;;;;;;;1.41;100.00;99393.16;2256157;79;21060;-58
2022/12/05 03:24:39;;;;;;;35.95;15.08;;;;;;;1.45;100.00;99391.82;2256273;79;21024;-58
2022/12/05 03:27:41;;;;;;;36.25;13.68;;;;;;;1.47;100.00;99393.94;2256182;79;21008;-59
2022/12/05 03:30:43;;;;;;;35.10;14.60;;;;;;;1.40;100.00;99394.05;2256091;79;21024;-58
2022/12/05 03:33:44;;;;;;;36.65;14.30;;;;;;;1.45;100.00;99389.66;2255826;79;21007;-59
2022/12/05 03:36:45;;;;;;;34.23;13.38;;;;;;;1.46;100.00;99393.51;2256351;79;21036;-58
2022/12/05 03:39:47;;;;;;;34.23;13.60;;;;;;;1.45;100.00;99380.61;2256385;79;21068;-59
2022/12/05 03:42:49;;;;;;;35.68;14.28;;;;;;;1.58;100.00;99374.39;2256596;79;21020;-59
2022/12/05 03:45:50;;;;;;;34.92;13.90;;;;;;;1.53;100.00;99374.44;2256292;79;21043;-59
2022/12/05 03:48:52;;;;;;;37.70;14.30;;;;;;;1.51;100.00;99387.00;2256432;79;21496;-58
2022/12/05 03:51:53;;;;;;;36.60;13.62;;;;;;;1.54;100.00;99399.42;2256330;79;21029;-58
2022/12/05 03:54:55;;;;;;;34.53;13.62;;;;;;;1.61;100.00;99407.95;2256281;79;21507;-59
2022/12/05 03:57:56;;;;;;;35.28;14.25;;;;;;;1.63;100.00;99414.40;2256386;79;21361;-58
2022/12/05 04:00:57;;;;;;;35.83;14.07;;;;;;;1.72;100.00;99418.12;2256248;79;21091;-58
2022/12/05 04:03:59;;;;;;;37.80;14.87;;;;;;;1.79;100.00;99421.48;2255930;79;21036;-59
2022/12/05 04:07:00;;;;;;;34.73;14.25;;;;;;;1.79;100.00;99422.77;2256105;79;21020;-59
2022/12/05 04:10:02;;;;;;;36.90;14.23;;;;;;;1.86;100.00;99416.63;2256391;79;21044;-59
2022/12/05 04:13:16;;;;;;;35.98;14.15;;;;;;;1.82;100.00;99426.59;2256107;79;21017;-58
2022/12/05 04:19:10;;;;;;;35.98;14.53;;;;;;;1.68;100.00;99426.38;2229325;79;20941;-58
2022/12/05 04:22:11;;;;;;;39.07;15.30;;;;;;;1.75;100.00;99428.42;2256519;79;21047;-58
2022/12/05 04:28:16;;;;;;;35.90;14.28;;;;;;;1.82;100.00;99410.62;2229496;79;21327;-58
2022/12/05 04:31:18;;;;;;;37.53;14.15;;;;;;;1.83;100.00;99414.09;2256172;79;21052;-58
2022/12/05 04:34:19;;;;;;;39.00;15.08;;;;;;;1.80;100.00;99402.50;2256095;79;21072;-58
2022/12/05 04:37:20;;;;;;;37.33;14.45;;;;;;;1.87;100.00;99402.36;2256325;79;21503;-59
2022/12/05 04:40:22;;;;;;;35.50;14.45;;;;;;;1.86;100.00;99399.80;2256110;79;21015;-58
2022/12/05 04:43:23;;;;;;;37.98;15.03;;;;;;;1.79;100.00;99395.61;2256377;79;21503;-59
2022/12/05 04:46:25;;;;;;;40.47;15.67;;;;;;;1.86;100.00;99391.59;2255993;79;21043;-59
2022/12/05 04:49:27;;;;;;;37.73;15.30;;;;;;;1.91;100.00;99391.52;2256492;79;21706;-58
2022/12/05 04:52:28;;;;;;;37.50;13.68;;;;;;;1.90;100.00;99388.53;2256227;79;21021;-58
2022/12/05 04:55:29;;;;;;;36.40;14.43;;;;;;;1.91;100.00;99378.58;2256016;79;21115;-58
2022/12/05 04:58:31;;;;;;;36.63;14.78;;;;;;;1.81;100.00;99371.85;2256205;79;21000;-58
2022/12/05 05:01:32;;;;;;;37.60;14.98;;;;;;;1.67;100.00;99387.61;2255693;79;20992;-58
2022/12/05 05:04:34;;;;;;;38.75;15.30;;;;;;;1.75;100.00;99384.89;2256390;79;21523;-59
2022/12/05 05:07:35;;;;;;;40.05;15.60;;;;;;;1.79;100.00;99387.85;2256095;79;21059;-58
2022/12/05 05:10:36;;;;;;;38.60;15.85;;;;;;;1.77;100.00;99387.88;2256365;79;21543;-58
2022/12/05 05:13:38;;;;;;;40.78;16.55;;;;;;;1.79;100.00;99386.55;2256232;79;21013;-58
2022/12/05 05:16:40;;;;;;;38.55;16.35;;;;;;;1.75;100.00;99388.77;2256632;79;21530;-59
2022/12/05 05:19:41;;;;;;;37.88;14.98;;;;;;;1.69;100.00;99381.52;2256137;79;21025;-58
2022/12/05 05:22:43;;;;;;;39.33;15.10;;;;;;;1.79;100.00;99383.97;2256413;79;21600;-58
2022/12/05 05:25:44;;;;;;;35.95;14.80;;;;;;;1.77;100.00;99383.13;2256371;79;21297;-59
2022/12/05 05:28:47;;;;;;;38.17;15.30;;;;;;;1.83;100.00;99373.54;2256192;79;21048;-58
2022/12/05 05:31:48;;;;;;;;;;;;;;;1.75;100.00;99384.45;2258929;79;21111;-59
2022/12/05 05:34:50;;;;;;;37.58;15.40;;;;;;;1.71;100.00;99394.42;2256344;79;20142;-58
2022/12/05 05:37:51;;;;;;;38.28;15.65;;;;;;;1.65;100.00;99390.23;2256375;79;21028;-59
2022/12/05 05:40:53;;;;;;;39.83;16.75;;;;;;;1.73;100.00;99388.35;2256249;79;21040;-58
2022/12/05 05:43:54;;;;;;;39.23;15.48;;;;;;;1.68;100.00;99395.77;2256246;79;21527;-59
2022/12/05 05:46:56;;;;;;;39.73;15.30;;;;;;;1.79;100.00;99402.92;2256373;79;21034;-58
2022/12/05 05:49:57;;;;;;;41.10;16.10;;;;;;;1.88;100.00;99394.16;2256187;79;21084;-59
2022/12/05 05:52:59;;;;;;;37.50;15.50;;;;;;;2.01;100.00;99396.97;2256694;79;21047;-58
2022/12/05 05:56:00;;;;;;;37.53;14.87;;;;;;;2.02;100.00;99400.41;2256290;79;21032;-59
2022/12/05 05:59:01;;;;;;;39.08;15.83;;;;;;;1.99;100.00;99401.75;2256319;79;21064;-59
2022/12/05 06:02:03;;;;;;;42.85;16.00;;;;;;;2.10;100.00;99397.67;2256265;79;21092;-58
2022/12/05 06:05:05;;;;;;;36.75;15.78;;;;;;;1.97;100.00;99392.73;2256632;79;21068;-58
2022/12/05 06:08:06;;;;;;;37.25;14.85;;;;;;;1.90;100.00;99391.13;2256202;79;21036;-59
2022/12/05 06:11:07;;;;;;;38.23;15.98;;;;;;;1.93;100.00;99387.63;2256520;79;21498;-59
2022/12/05 06:14:09;;;;;;;37.75;15.10;;;;;;;1.96;100.00;99391.45;2256236;79;21055;-58
2022/12/05 06:17:10;;;;;;;38.65;15.78;;;;;;;1.93;100.00;99385.05;2255808;79;21054;-59
2022/12/05 06:20:12;;;;;;;38.60;15.48;;;;;;;1.99;100.00;99383.64;2256326;79;21072;-59
2022/12/05 06:23:14;;;;;;;43.30;17.60;;;;;;;2.00;100.00;99385.36;2256387;79;21080;-59
2022/12/05 06:26:15;;;;;;;38.17;15.15;;;;;;;2.03;100.00;99392.61;2256360;79;21021;-59
2022/12/05 06:29:16;;;;;;;41.23;16.32;;;;;;;2.06;100.00;99393.84;2256117;79;21044;-59
2022/12/05 06:32:18;;;;;;;39.50;15.93;;;;;;;2.00;100.00;99392.67;2256408;79;21032;-58
2022/12/05 06:35:19;;;;;;;43.28;16.48;;;;;;;1.90;100.00;99387.23;2256184;79;21025;-58
2022/12/05 06:38:21;;;;;;;41.05;17.55;;;;;;;1.95;100.00;99388.00;2256306;79;21520;-58
2022/12/05 06:41:23;;;;;;;41.83;16.67;;;;;;;1.92;100.00;99383.33;2256167;79;21028;-58
2022/12/05 06:44:25;;;;;;;37.17;15.18;;;;;;;1.92;100.00;99382.88;2256056;79;21080;-58
2022/12/05 06:47:27;;;;;;;36.20;15.55;;;;;;;1.85;100.00;99378.27;2256324;79;21068;-58
2022/12/05 06:50:28;;;;;;;42.95;16.15;;;;;;;1.95;100.00;99375.52;2256326;79;21033;-58
2022/12/05 06:53:30;;;;;;;38.65;15.63;;;;;;;1.90;100.00;99369.13;2256242;79;21017;-58
2022/12/05 06:56:31;;;;;;;43.10;17.05;;;;;;;1.90;100.00;99375.59;2256471;79;21024;-58
2022/12/05 06:59:33;;;;;;;41.00;15.97;;;;;;;1.94;100.00;99373.38;2256522;79;21064;-59
2022/12/05 07:02:34;;;;;;;39.58;14.93;;;;;;;1.89;100.00;99370.00;2256604;79;21748;-58
2022/12/05 07:05:36;;;;;;;40.40;16.73;;;;;;;1.94;100.00;99366.91;2256140;79;21024;-58
2022/12/05 07:08:38;;;;;;;38.28;15.48;;;;;;;1.94;100.00;99356.56;2256274;79;21530;-59
2022/12/05 07:11:39;;;;;;;40.38;16.23;;;;;;;1.92;100.00;99354.87;2256191;79;21108;-59
2022/12/05 07:14:41;;;;;;;42.10;17.90;;;;;;;1.89;100.00;99354.03;2256420;79;21591;-59
2022/12/05 07:17:42;;;;;;;42.40;17.05;;;;;;;1.97;100.00;99376.33;2256148;79;21017;-59
2022/12/05 07:20:44;;;;;;;42.40;15.97;;;;;;;2.01;100.00;99382.73;2256585;79;21562;-58
2022/12/05 07:23:45;;;;;;;40.83;17.70;;;;;;;2.05;100.00;99386.11;2256311;79;21029;-58
2022/12/05 07:26:47;;;;;;;38.33;15.80;;;;;;;2.20;100.00;99394.06;2256572;79;21166;-58
2022/12/05 07:29:48;;;;;;;42.20;16.67;;;;;;;2.20;100.00;99390.19;2255285;79;21473;-58
2022/12/05 07:32:50;;;;;;;40.17;16.82;;;;;;;2.24;100.00;99395.69;2248788;79;21004;-58
2022/12/05 07:35:51;;;;;;;44.63;18.32;;;;;;;2.29;100.00;99404.70;2249212;79;21013;-58
2022/12/05 07:38:53;;;;;;;46.15;17.23;;;;;;;2.25;100.00;99411.20;2249052;79;21016;-58
2022/12/05 07:41:54;;;;;;;42.80;17.65;;;;;;;2.26;100.00;99401.72;2248870;79;21551;-58
2022/12/05 07:44:55;;;;;;;43.13;17.92;;;;;;;2.27;100.00;99390.48;2249087;79;21052;-58
2022/12/05 07:47:57;;;;;;;42.77;18.20;;;;;;;2.32;100.00;99388.65;2249505;79;21567;-58
2022/12/05 07:50:59;;;;;;;43.73;18.12;;;;;;;2.32;100.00;99383.92;2249185;79;21319;-58
2022/12/05 07:54:01;;;;;;;42.62;17.75;;;;;;;2.44;100.00;99384.97;2249244;79;21520;-58
2022/12/05 07:57:03;;;;;;;39.75;17.30;;;;;;;2.40;100.00;99364.77;2249290;79;20997;-58
2022/12/05 08:00:05;;;;;;;40.43;15.70;;;;;;;2.39;100.00;99371.28;2249398;79;21026;-58
2022/12/05 08:03:07;;;;;;;39.40;16.32;;;;;;;2.46;100.00;99376.75;2249333;79;21060;-58
2022/12/05 08:06:08;;;;;;;43.20;18.27;;;;;;;2.58;100.00;99386.02;2249334;79;21008;-59
2022/12/05 08:09:10;;;;;;;40.30;16.27;;;;;;;2.62;100.00;99388.96;2249190;79;21153;-58
2022/12/05 08:12:11;;;;;;;45.20;17.07;;;;;;;2.65;100.00;99388.05;2249673;79;21739;-59
2022/12/05 08:15:13;;;;;;;42.85;17.60;;;;;;;2.70;100.00;99392.68;2249045;79;21069;-58
2022/12/05 08:18:15;;;;;;;40.10;17.00;;;;;;;2.68;100.00;99368.11;2249079;79;21036;-58
2022/12/05 08:21:16;;;;;;;41.50;17.00;;;;;;;2.67;100.00;99371.60;2249022;79;21742;-58
2022/12/05 08:24:18;;;;;;;40.13;16.97;;;;;;;2.66;100.00;99359.52;2249590;79;21575;-58
2022/12/05 08:27:19;;;;;;;37.38;15.13;;;;;;;2.66;100.00;99350.88;2249254;79;21029;-58
2022/12/05 08:30:21;;;;;;;43.20;17.62;;;;;;;2.73;100.00;99368.00;2250480;79;21069;-58
2022/12/05 08:33:22;;;;;;;42.25;16.50;;;;;;;2.80;100.00;99365.70;2256395;79;21072;-58
2022/12/05 08:36:24;;;;;;;39.07;16.10;;;;;;;2.96;100.00;99368.85;2256255;79;21032;-58
2022/12/05 08:39:26;;;;;;;41.20;16.87;;;;;;;3.03;100.00;99371.72;2256205;79;21044;-59
2022/12/05 08:42:27;;;;;;;39.78;17.15;;;;;;;3.06;100.00;99378.13;2256479;79;21084;-59
2022/12/05 08:45:29;;;;;;;38.55;16.73;;;;;;;3.19;100.00;99387.79;2256241;79;21036;-58
2022/12/05 08:48:31;;;;;;;38.53;16.57;;;;;;;3.24;100.00;99383.80;2256135;79;21051;-58
2022/12/05 08:51:33;;;;;;;40.83;17.65;;;;;;;3.35;100.00;99386.13;2256053;79;21686;-58
2022/12/05 08:54:34;;;;;;;39.92;16.82;;;;;;;3.41;100.00;99384.72;2256028;79;21021;-58
2022/12/05 08:57:36;;;;;;;39.40;15.95;;;;;;;3.47;100.00;99378.92;2256274;79;21032;-59
2022/12/05 09:00:37;;;;;;;40.48;16.82;;;;;;;3.53;100.00;99379.23;2256286;79;21083;-58
2022/12/05 09:03:39;;;;;;;40.65;17.00;;;;;;;3.52;100.00;99373.66;2256510;79;21099;-59
2022/12/05 09:06:40;;;;;;;38.10;15.93;;;;;;;3.68;100.00;99368.95;2256386;79;21013;-58
2022/12/05 09:09:42;;;;;;;38.45;16.27;;;;;;;3.68;100.00;99366.36;2256381;79;21083;-58
2022/12/05 09:12:43;;;;;;;41.18;16.82;;;;;;;3.80;100.00;99365.20;2256349;79;21021;-59
2022/12/05 09:15:45;;;;;;;40.40;16.77;;;;;;;3.84;100.00;99365.98;2256679;79;21121;-58
2022/12/05 09:18:47;;;;;;;38.08;16.40;;;;;;;3.84;100.00;99353.85;2256220;79;21689;-58
2022/12/05 09:21:48;;;;;;;41.45;17.52;;;;;;;3.89;100.00;99348.08;2256525;79;21475;-58
2022/12/05 09:24:49;;;;;;;41.37;17.50;;;;;;;3.95;100.00;99340.16;2256299;79;21056;-58
2022/12/05 09:27:51;;;;;;;40.20;17.05;;;;;;;3.94;100.00;99343.64;2256268;79;21562;-59
2022/12/05 09:30:53;;;;;;;39.15;15.95;;;;;;;3.98;100.00;99347.03;2256311;79;21069;-58
2022/12/05 09:33:55;;;;;;;41.08;17.37;;;;;;;4.00;100.00;99347.83;2256804;79;21607;-59
2022/12/05 09:36:57;;;;;;;37.70;16.85;;;;;;;4.07;100.00;99342.88;2256526;79;21099;-59
2022/12/05 09:39:58;;;;;;;41.20;16.50;;;;;;;4.20;100.00;99350.36;2256509;79;21549;-59
2022/12/05 09:42:59;;;;;;;38.20;16.12;;;;;;;4.29;100.00;99347.50;2256399;79;21021;-58
2022/12/05 09:46:01;;;;;;;37.03;15.80;;;;;;;4.39;100.00;99334.66;2256402;79;21563;-59
2022/12/05 09:49:02;;;;;;;36.28;15.88;;;;;;;4.53;100.00;99342.09;2256154;79;21049;-59
2022/12/05 09:52:04;;;;;;;37.05;16.20;;;;;;;4.65;100.00;99330.48;2256747;79;21076;-58
2022/12/05 09:55:05;;;;;;;35.38;15.63;;;;;;;4.69;100.00;99330.34;2256859;79;20945;-58
2022/12/05 09:58:07;;;;;;;36.63;16.03;;;;;;;4.70;100.00;99326.02;2256254;79;21032;-59
2022/12/05 10:01:08;;;;;;;34.75;14.80;;;;;;;4.70;100.00;99326.02;2256451;79;21095;-58
2022/12/05 10:04:10;;;;;;;37.55;16.65;;;;;;;4.78;100.00;99331.82;2256282;79;21033;-59
2022/12/05 10:07:11;;;;;;;34.83;15.20;;;;;;;4.87;100.00;99325.53;2256264;79;21112;-58
2022/12/05 10:10:13;;;;;;;33.73;15.45;;;;;;;5.07;100.00;99321.03;2256227;79;21053;-59
2022/12/05 10:13:15;;;;;;;35.77;16.83;;;;;;;5.31;100.00;99322.45;2256599;79;21552;-58
2022/12/05 10:16:16;;;;;;;35.78;15.08;;;;;;;5.41;100.00;99319.95;2256257;79;21047;-58
2022/12/05 10:19:18;;;;;;;35.83;16.13;;;;;;;5.61;100.00;99319.31;2256208;79;21559;-59
2022/12/05 10:22:19;;;;;;;35.13;15.98;;;;;;;5.77;100.00;99317.05;2256333;79;21694;-58
2022/12/05 10:25:21;;;;;;;37.23;16.20;;;;;;;5.93;100.00;99312.17;2256535;79;21056;-59
2022/12/05 10:28:23;;;;;;;33.38;14.98;;;;;;;5.89;100.00;99316.65;2256294;79;21125;-59
2022/12/05 10:31:24;;;;;;;36.23;15.80;;;;;;;5.80;100.00;99301.78;2256027;79;21598;-59
2022/12/05 10:34:26;;;;;;;31.97;14.93;;;;;;;5.87;100.00;99304.58;2256432;79;21118;-59
2022/12/05 10:37:29;;;;;;;36.73;16.23;;;;;;;5.92;100.00;99305.72;2256179;79;21076;-58
2022/12/05 10:40:31;;;;;;;34.45;16.12;;;;;;;5.95;100.00;99297.37;2256351;79;21515;-59
2022/12/05 10:43:32;;;;;;;34.38;15.10;;;;;;;6.04;100.00;99294.46;2256593;79;21020;-59
2022/12/05 10:46:34;;;;;;;35.10;14.90;;;;;;;6.10;100.00;99294.70;2256340;79;21083;-59
2022/12/05 10:49:35;;;;;;;37.03;15.95;;;;;;;6.08;100.00;99303.03;2256465;79;21076;-58
2022/12/05 10:52:37;;;;;;;33.00;14.87;;;;;;;6.17;100.00;99296.18;2256623;79;21105;-59
2022/12/05 10:55:38;;;;;;;33.23;14.70;;;;;;;6.27;100.00;99286.29;2256318;79;21068;-59
2022/12/05 10:58:39;;;;;;;34.73;15.10;;;;;;;6.25;100.00;99284.20;2256306;79;21029;-59
2022/12/05 11:01:41;;;;;;;32.60;14.80;;;;;;;6.21;100.00;99281.31;2256548;79;21582;-58
2022/12/05 11:04:43;;;;;;;30.57;14.30;;;;;;;6.34;100.00;99283.86;2256711;79;21108;-58
2022/12/05 11:07:44;;;;;;;32.73;14.85;;;;;;;6.52;100.00;99272.36;2256512;79;21515;-58
2022/12/05 11:10:45;;;;;;;32.33;14.75;;;;;;;6.67;100.00;99266.58;2256223;79;21063;-58
2022/12/05 11:13:47;;;;;;;33.48;15.32;;;;;;;6.82;100.00;99252.55;2256194;79;21573;-59
2022/12/05 11:16:48;;;;;;;35.05;15.18;;;;;;;6.86;100.00;99245.85;2256275;79;21025;-59
2022/12/05 11:19:50;;;;;;;33.08;14.78;;;;;;;6.83;100.00;99252.50;2256108;79;21072;-58
2022/12/05 11:22:51;;;;;;;36.13;16.63;;;;;;;6.83;100.00;99255.10;2256037;79;20989;-58
2022/12/05 11:25:53;;;;;;;33.23;14.53;;;;;;;6.74;100.00;99255.01;2256176;79;20976;-58
2022/12/05 11:28:54;;;;;;;33.63;15.30;;;;;;;6.91;100.00;99251.75;2256546;79;21065;-59
2022/12/05 11:31:56;;;;;;;33.38;16.10;;;;;;;6.99;100.00;99246.69;2255987;79;21052;-58
2022/12/05 11:34:57;;;;;;;33.60;15.07;;;;;;;7.04;100.00;99246.03;2256722;79;21095;-58
2022/12/05 11:37:59;;;;;;;34.90;15.85;;;;;;;7.18;100.00;99248.94;2256077;79;21041;-59
2022/12/05 11:41:00;;;;;;;32.93;14.65;;;;;;;7.23;100.00;99244.86;2256176;79;21568;-59
2022/12/05 11:44:02;;;;;;;35.52;15.08;;;;;;;7.17;100.00;99238.56;2256298;79;21008;-58
2022/12/05 11:47:03;;;;;;;34.80;15.13;;;;;;;7.25;100.00;99236.50;2256122;79;21072;-58
2022/12/05 11:50:04;;;;;;;32.25;15.08;;;;;;;7.42;100.00;99242.34;2255955;79;21106;-59
2022/12/05 11:53:06;;;;;;;35.15;16.57;;;;;;;7.61;100.00;99235.45;2256164;79;21028;-58
2022/12/05 11:56:07;;;;;;;33.93;15.90;;;;;;;7.79;100.00;99232.48;2256653;79;21058;-58
2022/12/05 11:59:09;;;;;;;32.10;14.80;;;;;;;8.05;100.00;99231.81;2256090;79;21021;-59
2022/12/05 12:02:11;;;;;;;31.82;15.43;;;;;;;8.23;100.00;99232.77;2256524;79;21047;-58
2022/12/05 12:05:12;;;;;;;31.42;14.83;;;;;;;8.41;100.00;99234.16;2256127;79;21056;-58
2022/12/05 12:08:14;;;;;;;33.98;15.18;;;;;;;8.51;100.00;99226.78;2256104;79;21551;-59
2022/12/05 12:11:15;;;;;;;31.93;14.23;;;;;;;8.44;100.00;99227.48;2256135;79;21009;-59
2022/12/05 12:14:17;;;;;;;34.93;15.37;;;;;;;8.56;100.00;99231.32;2256689;79;21551;-59
2022/12/05 12:17:18;;;;;;;30.57;14.38;;;;;;;8.70;100.00;99224.98;2256020;79;21430;-59
2022/12/05 12:20:19;;;;;;;32.05;13.93;;;;;;;8.75;100.00;99221.71;2256109;79;21083;-59
2022/12/05 12:23:21;;;;;;;33.78;14.85;;;;;;;8.56;100.00;99223.48;2256245;79;21017;-59
2022/12/05 12:26:22;;;;;;;33.15;15.00;;;;;;;8.40;100.00;99217.61;2256101;79;21008;-59
2022/12/05 12:29:24;;;;;;;33.98;15.58;;;;;;;8.47;100.00;99215.60;2256108;79;21598;-59
2022/12/05 12:32:25;;;;;;;34.45;15.83;;;;;;;8.46;100.00;99212.16;2255999;79;21068;-59
2022/12/05 12:35:27;;;;;;;36.23;15.17;;;;;;;8.45;100.00;99209.14;2256032;79;21526;-59
2022/12/05 12:38:28;;;;;;;34.70;16.07;;;;;;;8.44;100.00;99208.74;2256340;79;20957;-59
2022/12/05 12:41:30;;;;;;;30.48;13.83;;;;;;;8.26;100.00;99201.70;2256076;79;22285;-59
2022/12/05 12:44:32;;;;;;;32.40;13.62;;;;;;;8.17;100.00;99202.98;2256171;79;21119;-59
2022/12/05 12:47:35;;;;;;;33.63;14.60;;;;;;;7.97;100.00;99200.81;2256092;79;21523;-59
2022/12/05 12:50:36;;;;;;;30.85;13.38;;;;;;;7.79;100.00;99199.01;2229776;79;21495;-58
2022/12/05 12:53:38;;;;;;;33.42;14.90;;;;;;;7.85;100.00;99202.65;2256247;79;21036;-59
2022/12/05 12:56:39;;;;;;;31.80;14.53;;;;;;;7.67;100.00;99207.36;2256339;79;21510;-59
2022/12/05 12:59:41;;;;;;;31.50;13.77;;;;;;;7.52;100.00;99200.58;2256282;79;21004;-59
2022/12/05 13:02:42;;;;;;;35.05;15.13;;;;;;;7.54;100.00;99192.24;2256123;79;21550;-59
2022/12/05 13:05:45;;;;;;;32.63;14.27;;;;;;;7.49;100.00;99203.32;2256026;79;21004;-59
2022/12/05 13:08:46;;;;;;;33.85;15.30;;;;;;;7.44;100.00;99202.22;2256346;79;21518;-59
2022/12/05 13:11:48;;;;;;;32.08;13.65;;;;;;;7.40;100.00;99196.73;2256055;79;21062;-59
2022/12/05 13:14:50;;;;;;;36.83;15.73;;;;;;;7.41;100.00;99204.96;2256644;79;21527;-59
2022/12/05 13:17:51;;;;;;;30.50;13.47;;;;;;;7.38;100.00;99201.62;2256239;79;21788;-59
2022/12/05 13:20:53;;;;;;;33.65;14.80;;;;;;;7.39;100.00;99213.76;2256170;79;20976;-58
2022/12/05 13:23:55;;;;;;;37.67;16.67;;;;;;;7.34;100.00;99211.78;2256463;79;21060;-59
2022/12/05 13:26:57;;;;;;;35.83;17.27;;;;;;;7.22;100.00;99214.45;2256263;79;21587;-58
2022/12/05 13:29:58;;;;;;;37.35;16.40;;;;;;;7.23;100.00;99206.56;2256123;79;21028;-59
2022/12/05 13:33:01;;;;;;;40.05;17.75;;;;;;;7.24;100.00;99201.74;2228664;79;21542;-59
2022/12/05 13:45:13;;;;;;;33.95;15.23;;;;;;;7.10;100.00;99192.33;2229726;79;21048;-59
2022/12/05 13:48:14;;;;;;;32.55;14.90;;;;;;;7.02;100.00;99187.41;2256650;79;20968;-59
2022/12/05 13:51:16;;;;;;;37.25;14.93;;;;;;;7.03;100.00;99193.02;2256440;79;21072;-59
2022/12/05 13:54:17;;;;;;;32.40;14.20;;;;;;;6.95;100.00;99191.17;2256644;79;21563;-59
2022/12/05 13:57:19;;;;;;;32.55;13.48;;;;;;;6.99;100.00;99186.70;2256370;79;21024;-59
2022/12/05 14:00:21;;;;;;;34.35;15.55;;;;;;;7.05;100.00;99179.92;2256374;79;21563;-59
2022/12/05 14:03:23;;;;;;;35.10;15.20;;;;;;;7.00;100.00;99186.63;2256405;79;21033;-59
2022/12/05 14:06:25;;;;;;;33.53;15.05;;;;;;;7.00;100.00;99183.19;2256685;79;21079;-58
2022/12/05 14:09:27;;;;;;;33.45;14.78;;;;;;;6.96;100.00;99183.75;2256422;79;21040;-59
2022/12/05 14:12:28;;;;;;;36.03;16.30;;;;;;;6.94;100.00;99182.52;2256778;79;21053;-59